createdAt,value
2023-02-19T00:04:47.432Z,17.55
2023-02-19T00:09:49.976Z,17.80
2023-02-19T00:14:52.446Z,24.97
2023-02-19T00:19:56.258Z,17.77
2023-02-19T00:24:58.878Z,18.67
2023-02-19T00:30:01.389Z,18.23
2023-02-19T00:35:05.460Z,19.63
2023-02-19T00:40:08.755Z,21.17
2023-02-19T00:45:11.247Z,20.83
2023-02-19T00:50:15.624Z,20.23
2023-02-19T00:55:18.143Z,23.42
2023-02-19T01:00:20.925Z,17.92
2023-02-19T01:05:24.729Z,22.13
2023-02-19T01:10:27.236Z,18.23
2023-02-19T01:15:29.702Z,17.92
2023-02-19T01:20:33.678Z,20.97
2023-02-19T01:25:38.704Z,20.60
2023-02-19T01:30:41.205Z,24.90
2023-02-19T01:35:45.009Z,23.92
2023-02-19T01:40:55.495Z,19.07
2023-02-19T01:45:57.995Z,23.67
2023-02-19T01:51:07.132Z,23.90
2023-02-19T01:56:10.735Z,24.23
2023-02-19T02:01:13.830Z,23.48
2023-02-19T02:06:23.837Z,22.00
2023-02-19T02:11:26.521Z,21.53
2023-02-19T02:16:39.171Z,20.50
2023-02-19T02:21:56.930Z,24.98
2023-02-19T02:27:18.060Z,29.73
2023-02-19T02:32:26.684Z,29.47
2023-02-19T02:37:34.464Z,31.20
2023-02-19T02:42:40.525Z,30.10
2023-02-19T02:47:49.296Z,28.77
2023-02-19T02:53:15.083Z,29.42
2023-02-19T02:58:18.906Z,25.92
2023-02-19T03:03:25.519Z,28.13
2023-02-19T03:08:31.191Z,24.27
2023-02-19T03:13:55.364Z,25.13
2023-02-19T03:19:18.181Z,27.85
2023-02-19T03:24:41.478Z,25.60
2023-02-19T03:29:47.897Z,22.10
2023-02-19T03:34:56.862Z,28.67
2023-02-19T03:40:00.082Z,21.57
2023-02-19T03:45:15.697Z,17.42
2023-02-19T03:50:25.319Z,17.58
2023-02-19T03:55:33.250Z,23.27
2023-02-19T04:00:41.725Z,19.27
2023-02-19T04:05:50.795Z,18.48
2023-02-19T04:10:55.887Z,14.10
2023-02-19T04:16:03.562Z,16.90
2023-02-19T04:21:09.098Z,17.35
2023-02-19T04:26:12.936Z,16.52
2023-02-19T04:31:15.536Z,19.43
2023-02-19T04:36:19.430Z,14.70
2023-02-19T04:41:21.924Z,13.55
2023-02-19T04:46:24.438Z,14.83
2023-02-19T04:51:28.322Z,13.27
2023-02-19T04:56:30.909Z,13.65
2023-02-19T05:01:33.492Z,12.00
2023-02-19T05:06:37.352Z,11.70
2023-02-19T05:11:39.817Z,9.90
2023-02-19T05:16:42.297Z,11.80
2023-02-19T05:21:46.105Z,13.10
2023-02-19T05:26:48.981Z,13.95
2023-02-19T05:31:51.584Z,11.23
2023-02-19T05:36:55.570Z,11.40
2023-02-19T05:41:58.079Z,11.17
2023-02-19T05:47:00.575Z,8.70
2023-02-19T05:52:04.659Z,12.52
2023-02-19T05:57:07.114Z,13.00
2023-02-19T06:02:10.898Z,10.50
2023-02-19T06:07:14.997Z,12.70
2023-02-19T06:12:17.511Z,10.87
2023-02-19T06:17:20.734Z,10.80
2023-02-19T06:22:25.853Z,10.75
2023-02-19T06:27:28.508Z,12.80
2023-02-19T06:32:31.019Z,8.97
2023-02-19T06:37:34.833Z,10.27
2023-02-19T06:42:37.335Z,14.48
2023-02-19T06:47:39.853Z,9.67
2023-02-19T06:52:43.661Z,10.88
2023-02-19T06:57:46.136Z,11.20
2023-02-19T07:02:48.661Z,11.13
2023-02-19T07:07:52.556Z,13.63
2023-02-19T07:12:55.138Z,9.63
2023-02-19T07:17:57.624Z,10.77
2023-02-19T07:23:01.412Z,8.63
2023-02-19T07:28:03.876Z,12.45
2023-02-19T07:33:08.589Z,10.00
2023-02-19T07:38:15.930Z,13.77
2023-02-19T07:43:18.428Z,9.80
2023-02-19T07:48:21.869Z,15.43
2023-02-19T07:53:26.757Z,7.97
2023-02-19T07:58:29.723Z,18.52
2023-02-19T08:03:32.308Z,8.10
2023-02-19T08:08:36.140Z,10.17
2023-02-19T08:13:38.618Z,10.20
2023-02-19T08:18:41.147Z,8.85
2023-02-19T08:23:45.480Z,7.68
2023-02-19T08:28:49.569Z,8.93
2023-02-19T08:33:52.108Z,9.55
2023-02-19T08:38:55.961Z,7.65
2023-02-19T08:43:58.437Z,14.47
2023-02-19T08:49:00.968Z,6.15
2023-02-19T08:54:05.279Z,11.15
2023-02-19T08:59:07.749Z,8.93
2023-02-19T09:04:13.369Z,10.43
2023-02-19T09:09:17.542Z,9.13
2023-02-19T09:14:20.013Z,6.47
2023-02-19T09:19:22.535Z,8.30
2023-02-19T09:24:26.612Z,8.20
2023-02-19T09:29:30.080Z,5.53
2023-02-19T09:34:32.737Z,5.67
2023-02-19T09:39:36.861Z,6.32
2023-02-19T09:44:42.813Z,6.55
2023-02-19T09:49:51.854Z,7.97
2023-02-19T09:54:59.325Z,7.07
2023-02-19T10:00:10.322Z,9.43
2023-02-19T10:05:15.352Z,5.10
2023-02-19T10:10:28.436Z,5.73
2023-02-19T10:15:34.674Z,8.70
2023-02-19T10:20:37.264Z,7.82
2023-02-19T10:25:45.813Z,6.77
2023-02-19T10:30:54.011Z,3.47
2023-02-19T10:35:59.276Z,3.95
2023-02-19T10:41:07.856Z,5.00
2023-02-19T10:46:18.721Z,4.30
2023-02-19T10:51:22.905Z,3.60
2023-02-19T10:56:28.810Z,5.70
2023-02-19T11:01:31.325Z,4.30
2023-02-19T11:06:35.105Z,5.35
2023-02-19T11:11:40.669Z,6.30
2023-02-19T11:16:45.983Z,3.87
2023-02-19T11:21:49.085Z,3.08
2023-02-19T11:26:52.977Z,3.85
2023-02-19T11:31:56.095Z,2.93
2023-02-19T11:37:13.503Z,3.70
2023-02-19T11:42:35.486Z,4.85
2023-02-19T11:48:14.342Z,3.95
2023-02-19T11:53:25.998Z,5.27
2023-02-19T11:59:02.494Z,3.33
2023-02-19T12:04:26.368Z,4.40
2023-02-19T12:09:41.394Z,5.10
2023-02-19T12:15:07.379Z,5.03
2023-02-19T12:20:19.459Z,5.95
2023-02-19T12:25:57.876Z,4.17
2023-02-19T12:31:41.439Z,3.33
2023-02-19T12:36:54.652Z,3.22
2023-02-19T12:42:04.441Z,5.80
2023-02-19T12:47:17.051Z,3.53
2023-02-19T12:52:23.687Z,3.00
2023-02-19T12:57:30.656Z,6.03
2023-02-19T13:02:42.766Z,4.27
2023-02-19T13:07:52.210Z,6.90
2023-02-19T13:12:58.754Z,4.55
2023-02-19T13:18:06.209Z,5.03
2023-02-19T13:23:31.223Z,4.23
2023-02-19T13:28:51.606Z,4.30
2023-02-19T13:34:05.796Z,3.95
2023-02-19T13:39:08.947Z,6.33
2023-02-19T13:44:19.339Z,4.32
2023-02-19T13:49:41.326Z,3.22
2023-02-19T13:54:43.821Z,4.77
2023-02-19T13:59:48.348Z,3.88
2023-02-19T14:04:55.386Z,5.43
2023-02-19T14:09:58.501Z,3.13
2023-02-19T14:15:34.596Z,6.37
2023-02-19T14:20:45.978Z,4.07
2023-02-19T14:26:00.062Z,4.70
2023-02-19T14:31:11.547Z,6.37
2023-02-19T14:36:31.976Z,5.32
2023-02-19T14:41:39.859Z,4.50
2023-02-19T14:46:50.436Z,4.70
2023-02-19T14:51:59.332Z,5.70
2023-02-19T14:57:04.576Z,4.72
2023-02-19T15:02:16.069Z,10.17
2023-02-19T15:07:24.343Z,7.67
2023-02-19T15:12:29.925Z,5.00
2023-02-19T15:17:34.866Z,5.15
2023-02-19T15:22:41.526Z,5.13
2023-02-19T15:27:44.405Z,6.80
2023-02-19T15:32:53.547Z,8.45
2023-02-19T15:37:57.755Z,5.80
2023-02-19T15:43:01.516Z,5.45
2023-02-19T15:48:09.809Z,5.43
2023-02-19T15:53:17.968Z,5.83
2023-02-19T15:58:27.853Z,4.73
2023-02-19T16:03:31.698Z,5.75
2023-02-19T16:08:36.846Z,5.40
2023-02-19T16:13:39.330Z,4.63
2023-02-19T16:18:46.306Z,4.80
2023-02-19T16:23:54.535Z,5.10
2023-02-19T16:28:57.157Z,6.53
2023-02-19T16:34:17.490Z,5.93
2023-02-19T16:39:30.923Z,5.93
2023-02-19T16:44:36.488Z,9.53
2023-02-19T16:49:40.194Z,6.97
2023-02-19T16:54:44.588Z,23.77
2023-02-19T16:59:47.630Z,7.50
2023-02-19T17:04:51.821Z,4.60
2023-02-19T17:09:55.684Z,5.30
2023-02-19T17:14:58.189Z,7.13
2023-02-19T17:20:00.704Z,7.20
2023-02-19T17:25:04.719Z,11.70
2023-02-19T17:30:13.656Z,19.73
2023-02-19T17:35:16.430Z,25.93
2023-02-19T17:40:32.630Z,19.17
2023-02-19T17:45:36.198Z,27.23
2023-02-19T17:50:38.680Z,20.15
2023-02-19T17:55:42.513Z,10.03
2023-02-19T18:00:45.004Z,7.25
2023-02-19T18:05:47.572Z,8.38
2023-02-19T18:10:52.568Z,6.97
2023-02-19T18:15:55.131Z,5.88
2023-02-19T18:20:57.656Z,7.40
2023-02-19T18:26:01.520Z,7.07
2023-02-19T18:31:04.426Z,8.10
2023-02-19T18:36:11.356Z,9.55
2023-02-19T18:41:19.752Z,7.25
2023-02-19T18:46:22.929Z,7.87
2023-02-19T18:51:25.521Z,6.60
2023-02-19T18:56:30.584Z,6.22
2023-02-19T19:01:33.096Z,6.03
2023-02-19T19:06:35.955Z,6.78
2023-02-19T19:11:40.622Z,6.07
2023-02-19T19:16:44.312Z,6.47
2023-02-19T19:21:53.193Z,5.50
2023-02-19T19:26:57.285Z,7.00
2023-02-19T19:32:00.111Z,5.38
2023-02-19T19:37:02.644Z,7.77
2023-02-19T19:42:08.851Z,9.70
2023-02-19T19:47:11.377Z,8.68
2023-02-19T19:52:13.913Z,6.33
2023-02-19T19:57:18.044Z,7.57
2023-02-19T20:02:20.836Z,5.97
2023-02-19T20:07:23.344Z,8.67
2023-02-19T20:12:27.210Z,8.37
2023-02-19T20:17:29.713Z,8.73
2023-02-19T20:22:32.227Z,14.15
2023-02-19T20:27:36.130Z,8.90
2023-02-19T20:32:38.640Z,7.60
2023-02-19T20:37:41.431Z,9.98
2023-02-19T20:42:45.261Z,7.67
2023-02-19T20:47:47.847Z,9.10
2023-02-19T20:52:50.451Z,7.88
2023-02-19T20:57:54.288Z,8.40
2023-02-19T21:02:56.927Z,8.47
2023-02-19T21:07:59.486Z,7.47
2023-02-19T21:13:03.329Z,9.05
2023-02-19T21:18:05.903Z,9.27
2023-02-19T21:23:08.443Z,8.85
2023-02-19T21:28:12.424Z,7.57
2023-02-19T21:33:16.582Z,7.63
2023-02-19T21:38:19.088Z,7.47
2023-02-19T21:43:22.939Z,6.32
2023-02-19T21:48:25.439Z,8.40
2023-02-19T21:53:27.923Z,10.20
2023-02-19T21:58:31.777Z,6.22
2023-02-19T22:03:34.266Z,5.03
2023-02-19T22:08:36.743Z,6.87
2023-02-19T22:13:40.696Z,6.97
2023-02-19T22:18:47.948Z,7.45
2023-02-19T22:23:52.606Z,6.33
2023-02-19T22:28:57.972Z,8.07
2023-02-19T22:34:00.482Z,5.03
2023-02-19T22:39:03.161Z,5.47
2023-02-19T22:44:07.154Z,6.00
2023-02-19T22:49:09.646Z,7.05
2023-02-19T22:54:12.126Z,4.93
2023-02-19T22:59:15.977Z,8.20
2023-02-19T23:04:18.645Z,6.80
2023-02-19T23:09:23.413Z,6.10
2023-02-19T23:14:27.363Z,5.50
2023-02-19T23:19:29.873Z,7.30
2023-02-19T23:24:32.875Z,6.25
2023-02-19T23:29:36.677Z,7.73
2023-02-19T23:34:39.208Z,7.07
2023-02-19T23:39:41.710Z,8.10
2023-02-19T23:44:48.104Z,5.82
2023-02-19T23:49:50.567Z,7.37
2023-02-19T23:54:53.048Z,8.02
2023-02-19T23:59:56.878Z,8.23
